sensor_id;sensor_type;location;lat;lon;timestamp;pressure;altitude;pressure_sealevel;temperature
13219;BMP180;6674;49.152;11.918;2023-07-08T00:00:50;96330.72;;;20.95
13219;BMP180;6674;49.152;11.918;2023-07-08T00:03:18;96332.53;;;20.94
13219;BMP180;6674;49.152;11.918;2023-07-08T00:05:46;96327.28;;;20.94
13219;BMP180;6674;49.152;11.918;2023-07-08T00:08:14;96332.81;;;20.93
13219;BMP180;6674;49.152;11.918;2023-07-08T00:10:42;96327.59;;;20.88
13219;BMP180;6674;49.152;11.918;2023-07-08T00:13:09;96327.88;;;20.86
13219;BMP180;6674;49.152;11.918;2023-07-08T00:15:38;96327.66;;;20.73
13219;BMP180;6674;49.152;11.918;2023-07-08T00:18:11;96326.88;;;20.63
13219;BMP180;6674;49.152;11.918;2023-07-08T00:20:39;96318.25;;;20.62
13219;BMP180;6674;49.152;11.918;2023-07-08T00:23:08;96320.34;;;20.60
13219;BMP180;6674;49.152;11.918;2023-07-08T00:25:35;96316.94;;;20.60
13219;BMP180;6674;49.152;11.918;2023-07-08T00:28:04;96313.81;;;20.58
13219;BMP180;6674;49.152;11.918;2023-07-08T00:30:34;96319.03;;;20.63
13219;BMP180;6674;49.152;11.918;2023-07-08T00:33:01;96327.94;;;20.67
13219;BMP180;6674;49.152;11.918;2023-07-08T00:35:30;96317.97;;;20.74
13219;BMP180;6674;49.152;11.918;2023-07-08T00:37:58;96319.75;;;20.78
13219;BMP180;6674;49.152;11.918;2023-07-08T00:40:28;96326.56;;;20.84
13219;BMP180;6674;49.152;11.918;2023-07-08T00:42:56;96325.50;;;20.85
13219;BMP180;6674;49.152;11.918;2023-07-08T00:45:32;96329.69;;;20.86
13219;BMP180;6674;49.152;11.918;2023-07-08T00:48:07;96334.41;;;20.84
13219;BMP180;6674;49.152;11.918;2023-07-08T00:50:35;96334.94;;;20.86
13219;BMP180;6674;49.152;11.918;2023-07-08T00:53:25;96322.63;;;20.86
13219;BMP180;6674;49.152;11.918;2023-07-08T00:55:54;96319.19;;;20.86
13219;BMP180;6674;49.152;11.918;2023-07-08T00:58:22;96318.69;;;20.84
13219;BMP180;6674;49.152;11.918;2023-07-08T01:00:53;96332.88;;;20.73
13219;BMP180;6674;49.152;11.918;2023-07-08T01:03:23;96328.97;;;20.71
13219;BMP180;6674;49.152;11.918;2023-07-08T01:05:51;96331.88;;;20.69
13219;BMP180;6674;49.152;11.918;2023-07-08T01:08:18;96330.84;;;20.70
13219;BMP180;6674;49.152;11.918;2023-07-08T01:10:48;96324.78;;;20.70
13219;BMP180;6674;49.152;11.918;2023-07-08T01:13:16;96321.91;;;20.66
13219;BMP180;6674;49.152;11.918;2023-07-08T01:15:45;96330.28;;;20.63
13219;BMP180;6674;49.152;11.918;2023-07-08T01:18:15;96324.28;;;20.63
13219;BMP180;6674;49.152;11.918;2023-07-08T01:20:43;96324.03;;;20.59
13219;BMP180;6674;49.152;11.918;2023-07-08T01:23:14;96316.97;;;20.55
13219;BMP180;6674;49.152;11.918;2023-07-08T01:25:41;96319.34;;;20.51
13219;BMP180;6674;49.152;11.918;2023-07-08T01:28:09;96318.31;;;20.47
13219;BMP180;6674;49.152;11.918;2023-07-08T01:30:36;96319.88;;;20.48
13219;BMP180;6674;49.152;11.918;2023-07-08T01:33:09;96318.84;;;20.44
13219;BMP180;6674;49.152;11.918;2023-07-08T01:35:38;96320.41;;;20.40
13219;BMP180;6674;49.152;11.918;2023-07-08T01:38:05;96312.56;;;20.35
13219;BMP180;6674;49.152;11.918;2023-07-08T01:40:37;96313.09;;;20.33
13219;BMP180;6674;49.152;11.918;2023-07-08T01:43:05;96316.28;;;20.30
13219;BMP180;6674;49.152;11.918;2023-07-08T01:45:34;96316.56;;;20.23
13219;BMP180;6674;49.152;11.918;2023-07-08T01:48:05;96314.47;;;20.15
13219;BMP180;6674;49.152;11.918;2023-07-08T01:50:37;96318.94;;;20.05
13219;BMP180;6674;49.152;11.918;2023-07-08T01:53:09;96305.84;;;20.00
13219;BMP180;6674;49.152;11.918;2023-07-08T01:55:38;96311.63;;;19.97
13219;BMP180;6674;49.152;11.918;2023-07-08T01:58:05;96313.72;;;19.90
13219;BMP180;6674;49.152;11.918;2023-07-08T02:00:31;96318.19;;;19.85
13219;BMP180;6674;49.152;11.918;2023-07-08T02:02:58;96320.03;;;19.89
13219;BMP180;6674;49.152;11.918;2023-07-08T02:05:25;96314.25;;;19.87
13219;BMP180;6674;49.152;11.918;2023-07-08T02:07:51;96320.81;;;19.85
13219;BMP180;6674;49.152;11.918;2023-07-08T02:10:18;96317.91;;;19.81
13219;BMP180;6674;49.152;11.918;2023-07-08T02:12:46;96314.50;;;19.81
13219;BMP180;6674;49.152;11.918;2023-07-08T02:15:13;96310.06;;;19.81
13219;BMP180;6674;49.152;11.918;2023-07-08T02:17:39;96304.56;;;19.78
13219;BMP180;6674;49.152;11.918;2023-07-08T02:20:06;96306.91;;;19.74
13219;BMP180;6674;49.152;11.918;2023-07-08T02:22:34;96307.16;;;19.68
13219;BMP180;6674;49.152;11.918;2023-07-08T02:25:01;96312.16;;;19.69
13219;BMP180;6674;49.152;11.918;2023-07-08T02:27:28;96305.63;;;19.67
13219;BMP180;6674;49.152;11.918;2023-07-08T02:29:56;96315.31;;;19.61
13219;BMP180;6674;49.152;11.918;2023-07-08T02:32:22;96308.50;;;19.55
13219;BMP180;6674;49.152;11.918;2023-07-08T02:34:49;96306.41;;;19.47
13219;BMP180;6674;49.152;11.918;2023-07-08T02:37:17;96312.94;;;19.45
13219;BMP180;6674;49.152;11.918;2023-07-08T02:39:44;96308.50;;;19.41
13219;BMP180;6674;49.152;11.918;2023-07-08T02:42:10;96317.91;;;19.37
13219;BMP180;6674;49.152;11.918;2023-07-08T02:44:37;96317.38;;;19.30
13219;BMP180;6674;49.152;11.918;2023-07-08T02:47:05;96315.81;;;19.34
13219;BMP180;6674;49.152;11.918;2023-07-08T02:49:31;96314.50;;;19.36
13219;BMP180;6674;49.152;11.918;2023-07-08T02:51:58;96317.91;;;19.32
13219;BMP180;6674;49.152;11.918;2023-07-08T02:54:24;96315.28;;;19.27
13219;BMP180;6674;49.152;11.918;2023-07-08T02:56:51;96312.94;;;19.30
13219;BMP180;6674;49.152;11.918;2023-07-08T02:59:18;96305.59;;;19.27
13219;BMP180;6674;49.152;11.918;2023-07-08T03:01:44;96311.63;;;19.33
13219;BMP180;6674;49.152;11.918;2023-07-08T03:04:13;96305.34;;;19.29
13219;BMP180;6674;49.152;11.918;2023-07-08T03:06:40;96306.41;;;19.28
13219;BMP180;6674;49.152;11.918;2023-07-08T03:09:07;96307.44;;;19.27
13219;BMP180;6674;49.152;11.918;2023-07-08T03:11:34;96312.66;;;19.22
13219;BMP180;6674;49.152;11.918;2023-07-08T03:14:01;96312.66;;;19.27
13219;BMP180;6674;49.152;11.918;2023-07-08T03:16:27;96315.28;;;19.27
13219;BMP180;6674;49.152;11.918;2023-07-08T03:18:54;96312.16;;;19.20
13219;BMP180;6674;49.152;11.918;2023-07-08T03:21:22;96305.34;;;19.14
13219;BMP180;6674;49.152;11.918;2023-07-08T03:23:49;96298.00;;;19.16
13219;BMP180;6674;49.152;11.918;2023-07-08T03:26:19;96312.13;;;19.10
13219;BMP180;6674;49.152;11.918;2023-07-08T03:28:46;96309.50;;;19.05
13219;BMP180;6674;49.152;11.918;2023-07-08T03:31:13;96310.03;;;19.07
13219;BMP180;6674;49.152;11.918;2023-07-08T03:33:40;96316.84;;;19.08
13219;BMP180;6674;49.152;11.918;2023-07-08T03:36:11;96318.13;;;19.01
13219;BMP180;6674;49.152;11.918;2023-07-08T03:38:39;96322.00;;;18.93
13219;BMP180;6674;49.152;11.918;2023-07-08T03:41:06;96327.19;;;18.88
13219;BMP180;6674;49.152;11.918;2023-07-08T03:43:32;96331.38;;;18.84
13219;BMP180;6674;49.152;11.918;2023-07-08T03:45:59;96335.56;;;18.80
13219;BMP180;6674;49.152;11.918;2023-07-08T03:48:25;96324.03;;;18.71
13219;BMP180;6674;49.152;11.918;2023-07-08T03:50:52;96326.09;;;18.64
13219;BMP180;6674;49.152;11.918;2023-07-08T03:53:19;96330.25;;;18.60
13219;BMP180;6674;49.152;11.918;2023-07-08T03:55:47;96329.19;;;18.52
13219;BMP180;6674;49.152;11.918;2023-07-08T03:58:13;96325.50;;;18.48
13219;BMP180;6674;49.152;11.918;2023-07-08T04:00:40;96328.38;;;18.46
13219;BMP180;6674;49.152;11.918;2023-07-08T04:03:08;96328.09;;;18.43
13219;BMP180;6674;49.152;11.918;2023-07-08T04:05:36;96326.53;;;18.42
13219;BMP180;6674;49.152;11.918;2023-07-08T04:08:03;96330.69;;;18.43
13219;BMP180;6674;49.152;11.918;2023-07-08T04:10:30;96328.88;;;18.38
13219;BMP180;6674;49.152;11.918;2023-07-08T04:12:58;96326.53;;;18.42
13219;BMP180;6674;49.152;11.918;2023-07-08T04:15:24;96323.94;;;18.47
13219;BMP180;6674;49.152;11.918;2023-07-08T04:17:54;96327.84;;;18.49
13219;BMP180;6674;49.152;11.918;2023-07-08T04:20:23;96327.34;;;18.52
13219;BMP180;6674;49.152;11.918;2023-07-08T04:22:49;96329.19;;;18.52
13219;BMP180;6674;49.152;11.918;2023-07-08T04:25:18;96337.03;;;18.52
13219;BMP180;6674;49.152;11.918;2023-07-08T04:27:45;96336.22;;;18.46
13219;BMP180;6674;49.152;11.918;2023-07-08T04:30:21;96344.81;;;18.42
13219;BMP180;6674;49.152;11.918;2023-07-08T04:32:49;96338.31;;;18.49
13219;BMP180;6674;49.152;11.918;2023-07-08T04:35:16;96348.78;;;18.59
13219;BMP180;6674;49.152;11.918;2023-07-08T04:37:43;96345.41;;;18.63
13219;BMP180;6674;49.152;11.918;2023-07-08T04:40:17;96339.16;;;18.64
13219;BMP180;6674;49.152;11.918;2023-07-08T04:42:45;96343.59;;;18.64
13219;BMP180;6674;49.152;11.918;2023-07-08T04:45:15;96339.94;;;18.65
13219;BMP180;6674;49.152;11.918;2023-07-08T04:47:43;96341.28;;;18.67
13219;BMP180;6674;49.152;11.918;2023-07-08T04:50:12;96343.34;;;18.70
13219;BMP180;6674;49.152;11.918;2023-07-08T04:52:39;96341.28;;;18.72
13219;BMP180;6674;49.152;11.918;2023-07-08T04:55:06;96338.69;;;18.72
13219;BMP180;6674;49.152;11.918;2023-07-08T04:57:34;96341.28;;;18.72
13219;BMP180;6674;49.152;11.918;2023-07-08T05:00:02;96338.41;;;18.69
13219;BMP180;6674;49.152;11.918;2023-07-08T05:02:32;96338.41;;;18.74
13219;BMP180;6674;49.152;11.918;2023-07-08T05:04:59;96338.41;;;18.74
13219;BMP180;6674;49.152;11.918;2023-07-08T05:07:25;96338.69;;;18.77
13219;BMP180;6674;49.152;11.918;2023-07-08T05:09:52;96334.50;;;18.81
13219;BMP180;6674;49.152;11.918;2023-07-08T05:12:18;96339.22;;;18.79
13219;BMP180;6674;49.152;11.918;2023-07-08T05:14:45;96347.84;;;18.85
13219;BMP180;6674;49.152;11.918;2023-07-08T05:17:12;96343.97;;;18.92
13219;BMP180;6674;49.152;11.918;2023-07-08T05:19:40;96339.53;;;18.98
13219;BMP180;6674;49.152;11.918;2023-07-08T05:22:09;96336.44;;;19.05
13219;BMP180;6674;49.152;11.918;2023-07-08T05:24:36;96338.81;;;19.12
13219;BMP180;6674;49.152;11.918;2023-07-08T05:27:03;96349.53;;;19.20
13219;BMP180;6674;49.152;11.918;2023-07-08T05:29:30;96357.66;;;19.24
13219;BMP180;6674;49.152;11.918;2023-07-08T05:31:56;96354.53;;;19.32
13219;BMP180;6674;49.152;11.918;2023-07-08T05:34:23;96352.72;;;19.37
13219;BMP180;6674;49.152;11.918;2023-07-08T05:36:51;96349.31;;;19.42
13219;BMP180;6674;49.152;11.918;2023-07-08T05:39:17;96362.38;;;19.51
13219;BMP180;6674;49.152;11.918;2023-07-08T05:41:44;96357.44;;;19.55
13219;BMP180;6674;49.152;11.918;2023-07-08T05:44:11;96363.47;;;19.65
13219;BMP180;6674;49.152;11.918;2023-07-08T05:46:37;96372.88;;;19.71
13219;BMP180;6674;49.152;11.918;2023-07-08T05:49:04;96365.03;;;19.76
13219;BMP180;6674;49.152;11.918;2023-07-08T05:51:30;96366.59;;;19.82
13219;BMP180;6674;49.152;11.918;2023-07-08T05:53:58;96362.69;;;19.90
13219;BMP180;6674;49.152;11.918;2023-07-08T05:56:25;96369.22;;;19.97
13219;BMP180;6674;49.152;11.918;2023-07-08T05:58:52;96369.78;;;19.94
13219;BMP180;6674;49.152;11.918;2023-07-08T06:01:18;96372.63;;;20.02
13219;BMP180;6674;49.152;11.918;2023-07-08T06:03:45;96375.50;;;20.11
13219;BMP180;6674;49.152;11.918;2023-07-08T06:06:11;96383.88;;;20.23
13219;BMP180;6674;49.152;11.918;2023-07-08T06:08:38;96387.00;;;20.20
13219;BMP180;6674;49.152;11.918;2023-07-08T06:11:07;96395.91;;;20.29
13219;BMP180;6674;49.152;11.918;2023-07-08T06:13:33;96395.38;;;20.36
13219;BMP180;6674;49.152;11.918;2023-07-08T06:16:00;96391.97;;;20.41
13219;BMP180;6674;49.152;11.918;2023-07-08T06:18:27;96401.63;;;20.50
13219;BMP180;6674;49.152;11.918;2023-07-08T06:20:54;96392.69;;;20.61
13219;BMP180;6674;49.152;11.918;2023-07-08T06:23:22;96388.50;;;20.75
13219;BMP180;6674;49.152;11.918;2023-07-08T06:25:49;96393.16;;;20.88
13219;BMP180;6674;49.152;11.918;2023-07-08T06:28:17;96377.88;;;21.00
13219;BMP180;6674;49.152;11.918;2023-07-08T06:30:45;96375.72;;;21.12
13219;BMP180;6674;49.152;11.918;2023-07-08T06:33:12;96362.00;;;21.24
13219;BMP180;6674;49.152;11.918;2023-07-08T06:35:38;96366.72;;;21.27
13219;BMP180;6674;49.152;11.918;2023-07-08T06:38:06;96370.28;;;21.41
13219;BMP180;6674;49.152;11.918;2023-07-08T06:40:33;96368.44;;;21.52
13219;BMP180;6674;49.152;11.918;2023-07-08T06:42:59;96364.41;;;21.59
13219;BMP180;6674;49.152;11.918;2023-07-08T06:45:27;96363.78;;;21.72
13219;BMP180;6674;49.152;11.918;2023-07-08T06:47:54;96363.16;;;21.85
13219;BMP180;6674;49.152;11.918;2023-07-08T06:50:21;96365.44;;;21.96
13219;BMP180;6674;49.152;11.918;2023-07-08T06:52:47;96360.84;;;22.11
13219;BMP180;6674;49.152;11.918;2023-07-08T06:55:14;96360.50;;;22.23
13219;BMP180;6674;49.152;11.918;2023-07-08T06:57:41;96352.22;;;22.34
13219;BMP180;6674;49.152;11.918;2023-07-08T07:00:09;96349.56;;;22.39
13219;BMP180;6674;49.152;11.918;2023-07-08T07:02:37;96347.53;;;22.54
13219;BMP180;6674;49.152;11.918;2023-07-08T07:05:05;96342.63;;;22.71
13219;BMP180;6674;49.152;11.918;2023-07-08T07:07:32;96347.16;;;22.84
13219;BMP180;6674;49.152;11.918;2023-07-08T07:09:59;96341.03;;;22.94
13219;BMP180;6674;49.152;11.918;2023-07-08T07:12:26;96347.72;;;23.04
13219;BMP180;6674;49.152;11.918;2023-07-08T07:14:53;96337.56;;;23.16
13219;BMP180;6674;49.152;11.918;2023-07-08T07:17:20;96343.97;;;23.29
13219;BMP180;6674;49.152;11.918;2023-07-08T07:19:48;96351.16;;;23.41
13219;BMP180;6674;49.152;11.918;2023-07-08T07:22:15;96357.75;;;23.57
13219;BMP180;6674;49.152;11.918;2023-07-08T07:24:42;96363.59;;;23.73
13219;BMP180;6674;49.152;11.918;2023-07-08T07:27:09;96367.06;;;23.86
13219;BMP180;6674;49.152;11.918;2023-07-08T07:29:41;96352.06;;;24.00
13219;BMP180;6674;49.152;11.918;2023-07-08T07:32:09;96349.47;;;24.14
13219;BMP180;6674;49.152;11.918;2023-07-08T07:34:35;96353.69;;;24.28
13219;BMP180;6674;49.152;11.918;2023-07-08T07:37:05;96357.75;;;24.39
13219;BMP180;6674;49.152;11.918;2023-07-08T07:39:32;96349.66;;;24.49
13219;BMP180;6674;49.152;11.918;2023-07-08T07:41:59;96345.75;;;24.60
13219;BMP180;6674;49.152;11.918;2023-07-08T07:44:25;96353.75;;;24.68
13219;BMP180;6674;49.152;11.918;2023-07-08T07:46:52;96343.97;;;24.82
13219;BMP180;6674;49.152;11.918;2023-07-08T07:49:19;96349.81;;;24.92
13219;BMP180;6674;49.152;11.918;2023-07-08T07:51:46;96346.03;;;24.98
13219;BMP180;6674;49.152;11.918;2023-07-08T07:54:15;96347.31;;;25.01
13219;BMP180;6674;49.152;11.918;2023-07-08T07:56:42;96347.84;;;25.11
13219;BMP180;6674;49.152;11.918;2023-07-08T07:59:10;96354.97;;;25.24
13219;BMP180;6674;49.152;11.918;2023-07-08T08:01:37;96358.19;;;25.34
13219;BMP180;6674;49.152;11.918;2023-07-08T08:04:04;96354.84;;;25.42
13219;BMP180;6674;49.152;11.918;2023-07-08T08:06:30;96363.25;;;25.44
13219;BMP180;6674;49.152;11.918;2023-07-08T08:08:57;96373.59;;;25.54
13219;BMP180;6674;49.152;11.918;2023-07-08T08:11:25;96374.81;;;25.35
13219;BMP180;6674;49.152;11.918;2023-07-08T08:13:52;96372.22;;;25.43
13219;BMP180;6674;49.152;11.918;2023-07-08T08:16:19;96367.19;;;25.55
13219;BMP180;6674;49.152;11.918;2023-07-08T08:18:46;96380.00;;;25.75
13219;BMP180;6674;49.152;11.918;2023-07-08T08:21:13;96369.91;;;25.77
13219;BMP180;6674;49.152;11.918;2023-07-08T08:23:40;96367.66;;;25.92
13219;BMP180;6674;49.152;11.918;2023-07-08T08:26:06;96371.63;;;26.03
13219;BMP180;6674;49.152;11.918;2023-07-08T08:28:34;96364.53;;;26.12
13219;BMP180;6674;49.152;11.918;2023-07-08T08:31:01;96350.69;;;26.37
13219;BMP180;6674;49.152;11.918;2023-07-08T08:33:28;96362.31;;;26.57
13219;BMP180;6674;49.152;11.918;2023-07-08T08:35:54;96366.91;;;26.74
13219;BMP180;6674;49.152;11.918;2023-07-08T08:38:21;96368.84;;;26.90
13219;BMP180;6674;49.152;11.918;2023-07-08T08:40:48;96357.78;;;26.58
13219;BMP180;6674;49.152;11.918;2023-07-08T08:43:18;96356.78;;;26.84
13219;BMP180;6674;49.152;11.918;2023-07-08T08:45:53;96360.63;;;27.08
13219;BMP180;6674;49.152;11.918;2023-07-08T08:48:24;96360.34;;;27.27
13219;BMP180;6674;49.152;11.918;2023-07-08T08:50:55;96357.72;;;27.43
13219;BMP180;6674;49.152;11.918;2023-07-08T08:53:26;96361.28;;;27.31
13219;BMP180;6674;49.152;11.918;2023-07-08T08:55:56;96358.03;;;27.42
13219;BMP180;6674;49.152;11.918;2023-07-08T08:58:33;96365.53;;;27.48
13219;BMP180;6674;49.152;11.918;2023-07-08T09:01:06;96362.25;;;27.68
13219;BMP180;6674;49.152;11.918;2023-07-08T09:03:39;96357.09;;;27.88
13219;BMP180;6674;49.152;11.918;2023-07-08T09:06:15;96351.78;;;28.05
13219;BMP180;6674;49.152;11.918;2023-07-08T09:08:44;96350.19;;;28.29
13219;BMP180;6674;49.152;11.918;2023-07-08T09:11:19;96345.91;;;28.45
13219;BMP180;6674;49.152;11.918;2023-07-08T09:13:48;96349.13;;;28.68
13219;BMP180;6674;49.152;11.918;2023-07-08T09:16:20;96356.69;;;28.86
13219;BMP180;6674;49.152;11.918;2023-07-08T09:18:58;96350.47;;;29.11
13219;BMP180;6674;49.152;11.918;2023-07-08T09:21:27;96355.56;;;29.24
13219;BMP180;6674;49.152;11.918;2023-07-08T09:23:57;96343.81;;;29.25
13219;BMP180;6674;49.152;11.918;2023-07-08T09:26:27;96350.06;;;29.29
13219;BMP180;6674;49.152;11.918;2023-07-08T09:28:55;96348.22;;;29.41
13219;BMP180;6674;49.152;11.918;2023-07-08T09:31:26;96347.06;;;29.30
13219;BMP180;6674;49.152;11.918;2023-07-08T09:34:04;96343.38;;;29.43
13219;BMP180;6674;49.152;11.918;2023-07-08T09:36:31;96338.91;;;29.35
13219;BMP180;6674;49.152;11.918;2023-07-08T09:39:00;96354.47;;;29.45
13219;BMP180;6674;49.152;11.918;2023-07-08T09:41:32;96340.34;;;29.53
13219;BMP180;6674;49.152;11.918;2023-07-08T09:44:13;96337.59;;;29.61
13219;BMP180;6674;49.152;11.918;2023-07-08T09:46:42;96339.53;;;29.73
13219;BMP180;6674;49.152;11.918;2023-07-08T09:49:13;96342.59;;;29.83
13219;BMP180;6674;49.152;11.918;2023-07-08T09:51:40;96344.03;;;29.81
13219;BMP180;6674;49.152;11.918;2023-07-08T09:54:07;96338.75;;;29.52
13219;BMP180;6674;49.152;11.918;2023-07-08T09:56:35;96340.19;;;29.70
13219;BMP180;6674;49.152;11.918;2023-07-08T09:59:05;96344.34;;;29.79
13219;BMP180;6674;49.152;11.918;2023-07-08T10:01:35;96349.19;;;29.98
13219;BMP180;6674;49.152;11.918;2023-07-08T10:04:03;96346.16;;;29.87
13219;BMP180;6674;49.152;11.918;2023-07-08T10:06:32;96356.97;;;30.02
13219;BMP180;6674;49.152;11.918;2023-07-08T10:09:02;96357.50;;;29.76
13219;BMP180;6674;49.152;11.918;2023-07-08T10:11:31;96349.41;;;29.72
13219;BMP180;6674;49.152;11.918;2023-07-08T10:14:02;96360.81;;;29.73
13219;BMP180;6674;49.152;11.918;2023-07-08T10:16:32;96364.19;;;29.82
13219;BMP180;6674;49.152;11.918;2023-07-08T10:19:00;96362.94;;;29.59
13219;BMP180;6674;49.152;11.918;2023-07-08T10:21:35;96361.44;;;29.70
13219;BMP180;6674;49.152;11.918;2023-07-08T10:24:16;96360.22;;;29.88
13219;BMP180;6674;49.152;11.918;2023-07-08T10:26:52;96354.19;;;29.99
13219;BMP180;6674;49.152;11.918;2023-07-08T10:29:28;96365.38;;;30.04
13219;BMP180;6674;49.152;11.918;2023-07-08T10:32:05;96357.91;;;30.18
13219;BMP180;6674;49.152;11.918;2023-07-08T10:34:40;96353.66;;;30.49
13219;BMP180;6674;49.152;11.918;2023-07-08T10:37:17;96352.34;;;30.67
13219;BMP180;6674;49.152;11.918;2023-07-08T10:39:59;96358.75;;;30.43
13219;BMP180;6674;49.152;11.918;2023-07-08T10:45:28;96354.91;;;30.64
13219;BMP180;6674;49.152;11.918;2023-07-08T10:48:10;96360.22;;;30.64
13219;BMP180;6674;49.152;11.918;2023-07-08T10:50:51;96356.00;;;30.39
13219;BMP180;6674;49.152;11.918;2023-07-08T10:53:30;96362.13;;;30.19
13219;BMP180;6674;49.152;11.918;2023-07-08T10:56:07;96351.22;;;30.45
13219;BMP180;6674;49.152;11.918;2023-07-08T10:58:52;96354.69;;;30.57
13219;BMP180;6674;49.152;11.918;2023-07-08T11:01:32;96356.53;;;30.56
13219;BMP180;6674;49.152;11.918;2023-07-08T11:04:17;96356.31;;;30.61
13219;BMP180;6674;49.152;11.918;2023-07-08T11:06:50;96367.03;;;30.29
13219;BMP180;6674;49.152;11.918;2023-07-08T11:09:26;96366.72;;;30.31
13219;BMP180;6674;49.152;11.918;2023-07-08T11:11:58;96361.41;;;30.31
13219;BMP180;6674;49.152;11.918;2023-07-08T11:14:30;96352.88;;;30.05
13219;BMP180;6674;49.152;11.918;2023-07-08T11:17:07;96352.69;;;30.22
13219;BMP180;6674;49.152;11.918;2023-07-08T11:19:45;96353.09;;;30.44
13219;BMP180;6674;49.152;11.918;2023-07-08T11:22:14;96350.22;;;30.61
13219;BMP180;6674;49.152;11.918;2023-07-08T11:24:47;96348.84;;;30.99
13219;BMP180;6674;49.152;11.918;2023-07-08T11:27:19;96350.47;;;31.39
13219;BMP180;6674;49.152;11.918;2023-07-08T11:29:53;96339.16;;;31.69
13219;BMP180;6674;49.152;11.918;2023-07-08T11:32:22;96344.06;;;31.94
13219;BMP180;6674;49.152;11.918;2023-07-08T11:34:53;96343.16;;;31.63
13219;BMP180;6674;49.152;11.918;2023-07-08T11:37:22;96346.00;;;31.31
13219;BMP180;6674;49.152;11.918;2023-07-08T11:39:57;96332.06;;;30.98
13219;BMP180;6674;49.152;11.918;2023-07-08T11:42:33;96338.97;;;30.88
13219;BMP180;6674;49.152;11.918;2023-07-08T11:45:07;96338.03;;;30.84
13219;BMP180;6674;49.152;11.918;2023-07-08T11:47:38;96333.81;;;30.71
13219;BMP180;6674;49.152;11.918;2023-07-08T11:50:14;96340.03;;;30.75
13219;BMP180;6674;49.152;11.918;2023-07-08T11:52:51;96332.47;;;30.53
13219;BMP180;6674;49.152;11.918;2023-07-08T11:55:24;96330.34;;;30.35
13219;BMP180;6674;49.152;11.918;2023-07-08T11:57:54;96329.38;;;30.39
13219;BMP180;6674;49.152;11.918;2023-07-08T12:00:24;96326.69;;;30.39
13219;BMP180;6674;49.152;11.918;2023-07-08T12:02:57;96324.16;;;30.54
13219;BMP180;6674;49.152;11.918;2023-07-08T12:05:32;96330.06;;;30.60
13219;BMP180;6674;49.152;11.918;2023-07-08T12:07:59;96329.16;;;30.80
13219;BMP180;6674;49.152;11.918;2023-07-08T12:10:33;96325.06;;;31.06
13219;BMP180;6674;49.152;11.918;2023-07-08T12:13:01;96320.72;;;31.13
13219;BMP180;6674;49.152;11.918;2023-07-08T12:15:28;96324.34;;;31.33
13219;BMP180;6674;49.152;11.918;2023-07-08T12:17:59;96321.69;;;31.44
13219;BMP180;6674;49.152;11.918;2023-07-08T12:20:29;96321.19;;;31.81
13219;BMP180;6674;49.152;11.918;2023-07-08T12:22:56;96317.06;;;31.69
13219;BMP180;6674;49.152;11.918;2023-07-08T12:25:27;96318.44;;;31.78
13219;BMP180;6674;49.152;11.918;2023-07-08T12:27:56;96317.63;;;31.62
13219;BMP180;6674;49.152;11.918;2023-07-08T12:30:25;96323.44;;;31.79
13219;BMP180;6674;49.152;11.918;2023-07-08T12:32:54;96318.09;;;31.79
13219;BMP180;6674;49.152;11.918;2023-07-08T12:35:27;96314.56;;;31.76
13219;BMP180;6674;49.152;11.918;2023-07-08T12:37:57;96314.31;;;31.53
13219;BMP180;6674;49.152;11.918;2023-07-08T12:40:27;96312.38;;;31.66
13219;BMP180;6674;49.152;11.918;2023-07-08T12:42:56;96312.06;;;31.55
13219;BMP180;6674;49.152;11.918;2023-07-08T12:45:32;96311.56;;;31.77
13219;BMP180;6674;49.152;11.918;2023-07-08T12:47:59;96307.06;;;31.93
13219;BMP180;6674;49.152;11.918;2023-07-08T12:50:25;96321.53;;;32.07
13219;BMP180;6674;49.152;11.918;2023-07-08T12:52:52;96324.22;;;32.07
13219;BMP180;6674;49.152;11.918;2023-07-08T12:55:19;96310.44;;;32.05
13219;BMP180;6674;49.152;11.918;2023-07-08T12:57:47;96315.56;;;32.25
13219;BMP180;6674;49.152;11.918;2023-07-08T13:00:29;96306.47;;;32.42
13219;BMP180;6674;49.152;11.918;2023-07-08T13:02:58;96315.88;;;32.09
13219;BMP180;6674;49.152;11.918;2023-07-08T13:05:26;96300.16;;;32.19
13219;BMP180;6674;49.152;11.918;2023-07-08T13:07:55;96314.47;;;31.99
13219;BMP180;6674;49.152;11.918;2023-07-08T13:10:24;96310.50;;;31.93
13219;BMP180;6674;49.152;11.918;2023-07-08T13:12:56;96311.22;;;31.78
13219;BMP180;6674;49.152;11.918;2023-07-08T13:15:28;96305.09;;;31.78
13219;BMP180;6674;49.152;11.918;2023-07-08T13:17:56;96313.19;;;31.81
13219;BMP180;6674;49.152;11.918;2023-07-08T13:20:24;96314.38;;;31.69
13219;BMP180;6674;49.152;11.918;2023-07-08T13:22:55;96310.53;;;31.54
13219;BMP180;6674;49.152;11.918;2023-07-08T13:25:27;96310.28;;;31.20
13219;BMP180;6674;49.152;11.918;2023-07-08T13:27:55;96314.97;;;30.99
13219;BMP180;6674;49.152;11.918;2023-07-08T13:30:27;96315.66;;;30.85
13219;BMP180;6674;49.152;11.918;2023-07-08T13:32:55;96312.88;;;30.93
13219;BMP180;6674;49.152;11.918;2023-07-08T13:35:28;96312.75;;;30.90
13219;BMP180;6674;49.152;11.918;2023-07-08T13:38:01;96316.50;;;30.77
13219;BMP180;6674;49.152;11.918;2023-07-08T13:40:27;96309.84;;;30.83
13219;BMP180;6674;49.152;11.918;2023-07-08T13:42:55;96319.19;;;30.65
13219;BMP180;6674;49.152;11.918;2023-07-08T13:45:26;96318.38;;;30.64
13219;BMP180;6674;49.152;11.918;2023-07-08T13:48:09;96310.00;;;30.30
13219;BMP180;6674;49.152;11.918;2023-07-08T13:50:44;96312.88;;;30.13
13219;BMP180;6674;49.152;11.918;2023-07-08T13:53:19;96315.78;;;29.88
13219;BMP180;6674;49.152;11.918;2023-07-08T13:55:47;96319.72;;;30.02
13219;BMP180;6674;49.152;11.918;2023-07-08T13:58:26;96322.34;;;29.91
13219;BMP180;6674;49.152;11.918;2023-07-08T14:00:54;96313.44;;;29.87
13219;BMP180;6674;49.152;11.918;2023-07-08T14:03:22;96319.69;;;29.91
13219;BMP180;6674;49.152;11.918;2023-07-08T14:05:50;96320.69;;;29.98
13219;BMP180;6674;49.152;11.918;2023-07-08T14:08:17;96325.94;;;30.06
13219;BMP180;6674;49.152;11.918;2023-07-08T14:10:44;96319.91;;;29.98
13219;BMP180;6674;49.152;11.918;2023-07-08T14:13:11;96316.41;;;30.05
13219;BMP180;6674;49.152;11.918;2023-07-08T14:15:38;96313.00;;;29.85
13219;BMP180;6674;49.152;11.918;2023-07-08T14:18:05;96314.84;;;30.04
13219;BMP180;6674;49.152;11.918;2023-07-08T14:20:33;96306.69;;;30.21
13219;BMP180;6674;49.152;11.918;2023-07-08T14:23:00;96299.56;;;30.25